Time;durP1;ratioP1;P1;durP2;ratioP2;P2;SDS_P1;SDS_P2;PMS_P1;PMS_P2;Temp;Humidity;BMP_temperature;BMP_pressure;BME280_temperature;BME280_humidity;BME280_pressure;Samples;Min_cycle;Max_cycle;Signal;HPM_P1;HPM_P2
2022/05/30 00:00:26;;;;;;;3.47;2.33;;;9.50;99.90;;;;;;5042327;28;20064;-74
2022/05/30 00:02:52;;;;;;;8.60;2.25;;;9.50;99.90;;;;;;5023690;28;20040;-74
2022/05/30 00:05:20;;;;;;;7.05;1.70;;;9.40;99.90;;;;;;5023895;28;20044;-74
2022/05/30 00:07:46;;;;;;;7.35;2.08;;;9.60;99.90;;;;;;5038373;28;20077;-73
2022/05/30 00:10:13;;;;;;;6.25;2.40;;;9.60;99.90;;;;;;5034557;28;20136;-73
2022/05/30 00:12:39;;;;;;;8.13;2.63;;;9.60;99.90;;;;;;5030536;28;20044;-73
2022/05/30 00:15:08;;;;;;;7.90;2.83;;;9.60;99.90;;;;;;5047545;28;20033;-73
2022/05/30 00:17:34;;;;;;;7.95;2.90;;;9.40;99.90;;;;;;5043973;28;20500;-72
2022/05/30 00:20:00;;;;;;;6.88;2.88;;;9.40;99.90;;;;;;5040725;28;20047;-73
2022/05/30 00:22:26;;;;;;;10.32;3.35;;;9.60;99.90;;;;;;5023764;28;20067;-75
2022/05/30 00:24:52;;;;;;;7.45;2.92;;;9.40;99.90;;;;;;5007876;28;20113;-73
2022/05/30 00:27:18;;;;;;;6.97;2.90;;;9.40;99.90;;;;;;5023599;28;20048;-73
2022/05/30 00:29:43;;;;;;;5.65;3.13;;;9.30;99.90;;;;;;5024115;28;20377;-72
2022/05/30 00:32:09;;;;;;;4.25;2.50;;;9.40;99.90;;;;;;5032421;28;20041;-72
2022/05/30 00:34:36;;;;;;;6.25;2.67;;;9.60;99.90;;;;;;5041664;28;20094;-73
2022/05/30 00:37:02;;;;;;;8.93;2.53;;;9.50;99.90;;;;;;5048876;28;20385;-73
2022/05/30 00:39:29;;;;;;;6.82;2.78;;;9.70;99.90;;;;;;5027114;28;20041;-74
2022/05/30 00:42:17;;;;;;;7.15;2.75;;;9.40;99.90;;;;;;5047384;28;20045;-73
2022/05/30 00:44:44;;;;;;;6.63;1.75;;;9.80;99.90;;;;;;5048933;28;20085;-74
2022/05/30 00:47:10;;;;;;;8.75;2.25;;;9.80;99.90;;;;;;5032438;28;20126;-73
2022/05/30 00:49:38;;;;;;;6.10;1.88;;;9.90;99.90;;;;;;5009243;28;20033;-74
2022/05/30 00:52:07;;;;;;;10.27;2.58;;;9.60;99.90;;;;;;5039129;28;20033;-73
2022/05/30 00:54:43;;;;;;;8.35;2.10;;;9.80;99.90;;;;;;5039835;28;20033;-74
2022/05/30 00:57:21;;;;;;;5.28;2.13;;;9.60;99.90;;;;;;5029134;28;20040;-73
2022/05/30 00:59:59;;;;;;;10.10;2.03;;;9.70;99.90;;;;;;5024831;28;20033;-73
2022/05/30 01:02:28;;;;;;;4.07;1.90;;;9.90;99.90;;;;;;5024020;28;20558;-74
2022/05/30 01:07:41;;;;;;;7.10;1.90;;;10.10;99.90;;;;;;5039758;28;20052;-75
2022/05/30 01:10:09;;;;;;;5.03;2.08;;;9.90;99.90;;;;;;5034865;28;20045;-75
2022/05/30 01:12:52;;;;;;;4.55;1.92;;;10.10;99.90;;;;;;5040233;28;20048;-75
2022/05/30 01:15:21;;;;;;;5.20;2.08;;;10.10;99.90;;;;;;5044849;28;20037;-75
2022/05/30 01:18:31;;;;;;;7.15;2.83;;;10.50;99.90;;;;;;5025713;28;20167;-75
2022/05/30 01:21:25;;;;;;;5.57;1.67;;;10.30;99.90;;;;;;4977636;28;20039;-75
2022/05/30 01:24:29;;;;;;;4.80;2.15;;;10.30;99.90;;;;;;4966059;28;20038;-76
2022/05/30 01:27:18;;;;;;;3.80;1.80;;;10.30;99.90;;;;;;5033008;28;20053;-74
2022/05/30 01:29:52;;;;;;;4.68;1.90;;;10.30;99.90;;;;;;5025259;28;20159;-75
2022/05/30 01:32:20;;;;;;;5.40;2.15;;;10.50;99.90;;;;;;5028165;28;20093;-76
2022/05/30 01:34:46;;;;;;;4.10;1.65;;;10.50;99.90;;;;;;5033023;28;20099;-77
2022/05/30 01:37:12;;;;;;;3.45;1.95;;;10.50;99.90;;;;;;5017481;28;20532;-76
2022/05/30 01:39:38;;;;;;;4.80;1.80;;;10.40;99.90;;;;;;5032471;28;20060;-75
2022/05/30 01:42:04;;;;;;;5.40;1.65;;;10.80;99.90;;;;;;5044938;28;20575;-75
2022/05/30 01:44:30;;;;;;;3.13;1.58;;;10.50;99.90;;;;;;5009933;28;20401;-76
2022/05/30 01:46:56;;;;;;;5.30;2.10;;;10.80;99.90;;;;;;5011252;28;20049;-76
2022/05/30 01:49:22;;;;;;;4.65;1.80;;;11.00;99.90;;;;;;5042376;28;20378;-75
2022/05/30 01:51:48;;;;;;;6.13;1.80;;;10.60;99.90;;;;;;5003782;28;20123;-73
2022/05/30 01:54:13;;;;;;;3.97;1.50;;;10.40;99.90;;;;;;5026395;28;20119;-74
2022/05/30 01:56:39;;;;;;;6.05;2.40;;;10.80;99.90;;;;;;5034153;28;20040;-73
2022/05/30 01:59:05;;;;;;;4.50;1.80;;;10.70;99.90;;;;;;5047015;28;20040;-74
2022/05/30 02:01:31;;;;;;;5.47;2.15;;;10.40;99.90;;;;;;5027945;28;20132;-73
2022/05/30 02:03:56;;;;;;;5.20;1.95;;;10.60;99.90;;;;;;5021095;28;20048;-75
2022/05/30 02:06:24;;;;;;;2.97;1.70;;;10.70;99.90;;;;;;5056700;28;20101;-74
2022/05/30 02:08:50;;;;;;;4.15;1.90;;;10.70;99.90;;;;;;5042436;28;21572;-75
2022/05/30 02:11:17;;;;;;;6.75;2.17;;;10.60;99.90;;;;;;5039444;28;20057;-75
2022/05/30 02:13:44;;;;;;;5.28;2.28;;;10.50;99.90;;;;;;5026469;28;20136;-74
2022/05/30 02:18:57;;;;;;;4.95;2.60;;;10.00;99.90;;;;;;5033759;28;20110;-74
2022/05/30 02:21:23;;;;;;;6.38;2.40;;;9.90;99.90;;;;;;5027767;28;20045;-74
2022/05/30 02:23:48;;;;;;;7.03;2.67;;;10.30;99.90;;;;;;5026978;28;20048;-74
2022/05/30 02:26:14;;;;;;;3.67;1.98;;;10.30;99.90;;;;;;5016179;28;20130;-74
2022/05/30 02:28:40;;;;;;;6.43;2.33;;;10.30;99.90;;;;;;5047606;28;20048;-73
2022/05/30 02:31:06;;;;;;;8.38;3.00;;;9.90;99.90;;;;;;5046465;28;20037;-74
2022/05/30 02:39:00;;;;;;;8.02;3.28;;;10.00;99.90;;;;;;5027096;28;20139;-74
2022/05/30 02:41:26;;;;;;;3.75;2.40;;;10.00;99.90;;;;;;5030842;28;20135;-74
2022/05/30 02:43:51;;;;;;;8.07;2.83;;;9.60;99.90;;;;;;5040520;28;20040;-73
2022/05/30 02:46:17;;;;;;;5.05;2.92;;;9.90;99.90;;;;;;5013220;28;20041;-74
2022/05/30 02:48:44;;;;;;;5.78;3.15;;;9.90;99.90;;;;;;5049061;28;20075;-74
2022/05/30 02:51:10;;;;;;;5.05;3.00;;;9.90;99.90;;;;;;5025553;28;20099;-73
2022/05/30 02:53:36;;;;;;;6.25;3.90;;;10.10;99.90;;;;;;5043893;28;20123;-74
2022/05/30 02:56:03;;;;;;;4.07;3.53;;;9.70;99.90;;;;;;5047357;28;20032;-73
2022/05/30 02:58:29;;;;;;;7.15;3.75;;;9.80;99.90;;;;;;5047668;28;20033;-73
2022/05/30 03:00:55;;;;;;;6.15;3.35;;;10.10;99.90;;;;;;5042977;28;20037;-74
2022/05/30 03:03:21;;;;;;;4.93;3.20;;;9.80;99.90;;;;;;5049363;28;20040;-73
2022/05/30 03:05:46;;;;;;;4.97;3.00;;;10.20;99.90;;;;;;5033397;28;20428;-74
2022/05/30 03:08:12;;;;;;;4.03;2.72;;;9.70;99.90;;;;;;5034091;28;20422;-74
2022/05/30 03:10:38;;;;;;;4.60;2.63;;;9.80;99.90;;;;;;5033666;28;20051;-75
2022/05/30 03:13:05;;;;;;;5.22;2.53;;;9.80;99.90;;;;;;5033764;28;20139;-75
2022/05/30 03:15:31;;;;;;;4.15;2.40;;;10.00;99.90;;;;;;5049898;28;20032;-74
2022/05/30 03:17:57;;;;;;;2.75;2.40;;;10.00;99.90;;;;;;5016669;28;20389;-74
2022/05/30 03:20:23;;;;;;;2.78;2.30;;;10.00;99.90;;;;;;5050549;28;20109;-74
2022/05/30 03:22:49;;;;;;;9.32;3.03;;;10.00;99.90;;;;;;5033888;28;20472;-74
2022/05/30 03:25:16;;;;;;;4.97;2.10;;;10.40;99.90;;;;;;5034078;28;20083;-73
2022/05/30 03:27:42;;;;;;;6.55;2.20;;;10.20;99.90;;;;;;5049856;28;20500;-74
2022/05/30 03:30:09;;;;;;;4.30;1.95;;;10.60;99.90;;;;;;5050450;28;20090;-75
2022/05/30 03:32:34;;;;;;;2.83;1.92;;;10.30;99.90;;;;;;5049624;28;20040;-74
2022/05/30 03:35:00;;;;;;;7.20;1.90;;;10.20;99.90;;;;;;5031426;28;20044;-74
2022/05/30 03:37:27;;;;;;;5.00;2.20;;;10.30;99.90;;;;;;5017194;28;20037;-73
2022/05/30 03:39:53;;;;;;;4.57;1.90;;;10.70;99.90;;;;;;5050113;28;20055;-73
2022/05/30 03:42:19;;;;;;;4.75;2.03;;;10.50;99.90;;;;;;5033751;28;20044;-73
2022/05/30 03:44:45;;;;;;;3.88;1.75;;;10.90;99.90;;;;;;5048654;28;20672;-74
2022/05/30 03:47:11;;;;;;;3.55;1.83;;;11.00;99.90;;;;;;5033861;28;20425;-73
2022/05/30 03:49:37;;;;;;;5.40;2.33;;;10.80;99.90;;;;;;5049867;28;20041;-74
2022/05/30 03:52:04;;;;;;;4.55;1.95;;;10.70;99.90;;;;;;5026879;28;20103;-75
2022/05/30 03:54:30;;;;;;;5.80;1.98;;;11.20;99.90;;;;;;5048348;28;20044;-74
2022/05/30 03:56:56;;;;;;;3.40;2.10;;;10.80;99.90;;;;;;5047166;28;20047;-74
2022/05/30 03:59:22;;;;;;;5.40;2.30;;;11.40;99.90;;;;;;5050199;28;20041;-74
2022/05/30 04:01:47;;;;;;;5.15;2.20;;;11.40;99.90;;;;;;5023749;28;20512;-74
2022/05/30 04:04:13;;;;;;;5.00;2.10;;;11.40;99.90;;;;;;5043673;28;20044;-74
2022/05/30 04:06:40;;;;;;;3.97;2.20;;;11.40;99.90;;;;;;5037616;28;20045;-74
2022/05/30 04:09:06;;;;;;;4.03;2.00;;;11.10;99.90;;;;;;5043559;28;20041;-74
2022/05/30 04:11:32;;;;;;;3.92;2.08;;;11.10;99.90;;;;;;5056550;28;20056;-74
2022/05/30 04:13:57;;;;;;;3.42;2.30;;;11.70;99.90;;;;;;5044065;28;20099;-73
2022/05/30 04:16:23;;;;;;;7.03;2.10;;;11.50;99.90;;;;;;5042292;28;20420;-74
2022/05/30 04:18:49;;;;;;;7.40;2.40;;;11.20;99.90;;;;;;5025278;28;20100;-74
2022/05/30 04:21:15;;;;;;;8.65;2.10;;;11.30;99.90;;;;;;5039120;28;20056;-74
2022/05/30 04:23:42;;;;;;;3.30;2.20;;;11.20;99.90;;;;;;5041322;28;20040;-74
2022/05/30 04:26:13;;;;;;;3.42;2.13;;;11.70;99.90;;;;;;5025476;28;20478;-74
2022/05/30 04:28:39;;;;;;;4.95;2.67;;;11.30;99.90;;;;;;5040841;28;20037;-73
2022/05/30 04:31:10;;;;;;;5.55;2.40;;;11.30;99.90;;;;;;5024999;28;20032;-74
2022/05/30 04:33:37;;;;;;;6.50;2.88;;;11.70;99.90;;;;;;5023282;28;20587;-73
2022/05/30 04:36:06;;;;;;;4.97;2.95;;;11.60;99.90;;;;;;5039730;28;20044;-73
2022/05/30 04:38:32;;;;;;;4.13;2.65;;;11.10;99.90;;;;;;5041090;28;20622;-73
2022/05/30 04:40:58;;;;;;;9.52;3.22;;;11.20;99.90;;;;;;5038220;28;20055;-75
2022/05/30 04:43:23;;;;;;;6.18;3.22;;;11.60;99.90;;;;;;5041741;28;20098;-74
2022/05/30 04:46:06;;;;;;;5.47;2.50;;;11.40;99.90;;;;;;5031176;28;20084;-74
2022/05/30 04:48:32;;;;;;;4.05;2.70;;;11.30;99.90;;;;;;5044862;28;20046;-76
2022/05/30 04:50:57;;;;;;;3.72;2.38;;;11.80;99.90;;;;;;5044767;28;20133;-75
2022/05/30 04:53:23;;;;;;;6.53;2.83;;;11.50;99.90;;;;;;5043436;28;20065;-75
2022/05/30 04:55:49;;;;;;;4.85;2.38;;;12.20;99.90;;;;;;5024973;28;20102;-75
2022/05/30 04:58:15;;;;;;;6.47;2.42;;;12.00;99.90;;;;;;5030913;28;20057;-75
2022/05/30 05:00:40;;;;;;;6.20;2.80;;;12.30;99.90;;;;;;5042038;28;20040;-75
2022/05/30 05:03:06;;;;;;;4.30;2.70;;;11.60;99.90;;;;;;5048374;28;20051;-75
2022/05/30 05:05:32;;;;;;;10.82;3.15;;;11.80;99.90;;;;;;5017991;28;20389;-74
2022/05/30 05:08:26;;;;;;;7.03;2.55;;;12.50;99.90;;;;;;5045791;28;20135;-75
2022/05/30 05:11:24;;;;;;;4.35;2.33;;;12.40;99.90;;;;;;5037286;28;20124;-76
2022/05/30 05:13:50;;;;;;;4.35;2.17;;;12.70;99.90;;;;;;5021045;28;20120;-76
2022/05/30 05:16:18;;;;;;;3.72;2.08;;;12.80;99.90;;;;;;5033785;28;20041;-76
2022/05/30 05:18:44;;;;;;;3.78;1.85;;;12.70;99.90;;;;;;5043805;28;20135;-76
2022/05/30 05:21:37;;;;;;;5.38;1.70;;;13.00;99.90;;;;;;5051300;28;20572;-74
2022/05/30 05:24:05;;;;;;;3.85;1.40;;;12.50;99.90;;;;;;5038340;28;20635;-73
2022/05/30 05:26:31;;;;;;;3.75;1.73;;;12.40;99.90;;;;;;5026430;28;20033;-74
2022/05/30 05:28:57;;;;;;;6.18;1.80;;;12.20;99.90;;;;;;5049632;28;20055;-74
2022/05/30 05:31:27;;;;;;;4.00;1.83;;;12.20;99.90;;;;;;5052357;28;20048;-74
2022/05/30 05:33:54;;;;;;;4.00;2.22;;;12.20;99.90;;;;;;5020979;28;20037;-74
2022/05/30 05:36:21;;;;;;;4.88;2.20;;;12.90;99.90;;;;;;5050824;28;20041;-74
2022/05/30 05:38:47;;;;;;;5.78;2.40;;;12.20;99.90;;;;;;5035030;28;20377;-74
2022/05/30 05:41:13;;;;;;;4.05;2.30;;;12.80;99.90;;;;;;5031910;28;20124;-74
2022/05/30 05:43:39;;;;;;;3.60;1.90;;;12.20;99.90;;;;;;5015803;28;20573;-75
2022/05/30 05:46:04;;;;;;;3.65;1.98;;;12.40;99.90;;;;;;5032810;28;20037;-75
2022/05/30 05:48:30;;;;;;;3.25;1.90;;;12.70;99.90;;;;;;5048848;28;20033;-74
2022/05/30 05:50:56;;;;;;;2.65;1.80;;;13.30;99.90;;;;;;5045750;28;20045;-74
2022/05/30 05:53:21;;;;;;;6.07;1.70;;;13.00;99.90;;;;;;5019927;28;20102;-75
2022/05/30 05:55:47;;;;;;;6.72;2.45;;;13.00;99.90;;;;;;5050261;28;20434;-76
2022/05/30 05:58:13;;;;;;;5.88;2.13;;;13.60;99.90;;;;;;5035370;28;20045;-76
2022/05/30 06:00:39;;;;;;;3.35;1.70;;;12.90;99.90;;;;;;5050294;28;20037;-75
2022/05/30 06:03:04;;;;;;;2.95;1.50;;;13.30;99.90;;;;;;5023431;28;20040;-76
2022/05/30 06:05:30;;;;;;;2.30;1.50;;;12.90;99.90;;;;;;5024561;28;20055;-76
2022/05/30 06:07:59;;;;;;;8.15;1.73;;;13.20;99.90;;;;;;5035478;28;20519;-76
2022/05/30 06:10:25;;;;;;;4.47;2.45;;;13.00;99.90;;;;;;5049999;28;20045;-76
2022/05/30 06:12:51;;;;;;;2.13;1.40;;;13.60;99.90;;;;;;5023268;28;20895;-78
2022/05/30 06:15:18;;;;;;;4.65;2.13;;;13.20;99.90;;;;;;5021981;28;20065;-75
2022/05/30 06:17:46;;;;;;;3.15;1.52;;;13.70;99.90;;;;;;5032025;28;20041;-76
2022/05/30 06:20:14;;;;;;;2.92;1.38;;;12.90;99.90;;;;;;5052762;28;20045;-76
2022/05/30 06:22:40;;;;;;;2.75;1.45;;;13.00;99.90;;;;;;5034823;28;20590;-76
2022/05/30 06:25:06;;;;;;;2.72;1.42;;;13.80;99.90;;;;;;5021768;28;20045;-76
2022/05/30 06:27:32;;;;;;;2.55;1.40;;;13.00;99.90;;;;;;5034031;28;20056;-74
2022/05/30 06:29:58;;;;;;;1.88;1.30;;;13.50;99.90;;;;;;5051942;28;20032;-74
2022/05/30 06:32:24;;;;;;;4.65;1.65;;;13.80;99.90;;;;;;5035246;28;20032;-76
2022/05/30 06:34:51;;;;;;;2.25;1.35;;;13.10;99.90;;;;;;5029160;28;20522;-75
2022/05/30 06:37:16;;;;;;;4.25;1.35;;;13.90;99.90;;;;;;5051992;28;20041;-74
2022/05/30 06:39:42;;;;;;;2.97;1.80;;;13.50;99.90;;;;;;5034819;28;20766;-75
2022/05/30 06:42:10;;;;;;;1.90;1.02;;;13.70;99.90;;;;;;5018032;28;20033;-74
2022/05/30 06:44:36;;;;;;;2.58;1.10;;;13.10;99.90;;;;;;5029766;28;20883;-76
2022/05/30 06:47:07;;;;;;;2.92;1.20;;;12.90;99.90;;;;;;5018640;28;20036;-74
2022/05/30 06:49:33;;;;;;;3.20;1.00;;;13.50;99.90;;;;;;5031957;28;20366;-75
2022/05/30 06:51:59;;;;;;;1.77;1.20;;;13.30;99.90;;;;;;5034827;28;20037;-75
2022/05/30 06:54:25;;;;;;;1.38;0.90;;;13.30;99.90;;;;;;5033298;28;20041;-75
2022/05/30 06:59:35;;;;;;;1.55;0.95;;;12.60;99.90;;;;;;5018627;28;20050;-76
2022/05/30 07:02:02;;;;;;;3.97;1.00;;;12.30;99.90;;;;;;5048587;28;20041;-76
2022/05/30 07:04:35;;;;;;;3.85;0.80;;;12.50;99.90;;;;;;5034288;28;20124;-74
2022/05/30 07:07:05;;;;;;;0.80;0.60;;;12.10;99.90;;;;;;5050663;28;20509;-74
2022/05/30 07:09:31;;;;;;;1.15;0.60;;;12.50;99.90;;;;;;5051346;28;20494;-75
2022/05/30 07:11:57;;;;;;;1.83;0.80;;;12.40;99.90;;;;;;5033216;28;20061;-74
2022/05/30 07:14:23;;;;;;;1.88;0.75;;;12.50;99.90;;;;;;5033896;28;20041;-74
2022/05/30 07:16:49;;;;;;;2.45;0.88;;;12.40;99.90;;;;;;5024166;28;20080;-75
2022/05/30 07:19:15;;;;;;;1.95;0.70;;;12.20;99.90;;;;;;5050110;28;20448;-76
2022/05/30 07:21:41;;;;;;;1.35;0.80;;;12.80;99.90;;;;;;5034522;28;20044;-76
2022/05/30 07:24:07;;;;;;;1.65;0.73;;;12.70;99.90;;;;;;5032975;28;20075;-76
2022/05/30 07:26:33;;;;;;;0.85;0.55;;;12.30;99.90;;;;;;5049661;28;20034;-75
2022/05/30 07:28:59;;;;;;;2.28;0.80;;;12.20;99.90;;;;;;5049545;28;20415;-75
2022/05/30 07:31:25;;;;;;;0.93;0.57;;;12.70;99.90;;;;;;5034219;28;20041;-76
2022/05/30 07:33:51;;;;;;;1.70;0.70;;;12.70;99.90;;;;;;5029515;28;20040;-76
2022/05/30 07:36:29;;;;;;;0.93;0.70;;;12.00;99.90;;;;;;5042746;28;20051;-75
2022/05/30 07:38:56;;;;;;;1.77;0.70;;;12.00;99.90;;;;;;5033792;28;20045;-77
2022/05/30 07:41:23;;;;;;;1.48;0.80;;;12.00;99.90;;;;;;5033995;28;20037;-77
2022/05/30 07:43:49;;;;;;;1.83;0.68;;;12.20;99.90;;;;;;5049248;28;20037;-75
2022/05/30 07:46:17;;;;;;;0.70;0.70;;;12.30;99.90;;;;;;5045204;28;20042;-76
2022/05/30 07:48:44;;;;;;;1.42;0.70;;;12.40;99.90;;;;;;5013719;28;20073;-76
2022/05/30 07:51:11;;;;;;;1.25;0.70;;;12.80;99.90;;;;;;5020923;28;20036;-75
2022/05/30 07:53:38;;;;;;;2.15;0.82;;;12.80;99.90;;;;;;5017357;28;20052;-75
2022/05/30 07:56:10;;;;;;;4.70;1.10;;;12.70;99.90;;;;;;5031016;28;20408;-75
2022/05/30 07:58:36;;;;;;;1.00;0.43;;;13.00;99.90;;;;;;5049477;28;20045;-75
2022/05/30 08:01:04;;;;;;;1.60;0.52;;;12.50;99.90;;;;;;5048279;28;20103;-75
2022/05/30 08:03:30;;;;;;;1.48;0.60;;;12.90;99.90;;;;;;5013530;28;20069;-74
2022/05/30 08:06:12;;;;;;;3.53;0.80;;;12.80;99.90;;;;;;5013189;28;20069;-76
2022/05/30 08:08:42;;;;;;;1.52;0.68;;;13.10;99.90;;;;;;5030782;28;20120;-73
2022/05/30 08:11:09;;;;;;;1.50;0.75;;;12.90;99.90;;;;;;5029891;28;20045;-76
2022/05/30 08:13:35;;;;;;;1.40;0.63;;;12.80;99.90;;;;;;5048145;28;20124;-75
2022/05/30 08:16:02;;;;;;;1.45;0.63;;;13.30;99.90;;;;;;5044529;28;20148;-74
2022/05/30 08:18:29;;;;;;;0.98;0.52;;;13.30;99.90;;;;;;5048696;28;20489;-75
2022/05/30 08:20:54;;;;;;;1.35;0.45;;;12.90;99.90;;;;;;5057583;28;20029;-74
2022/05/30 08:23:20;;;;;;;0.98;0.50;;;13.30;99.90;;;;;;5031842;28;20508;-74
2022/05/30 08:25:47;;;;;;;0.80;0.50;;;13.60;99.90;;;;;;5026095;28;20069;-75
2022/05/30 08:28:13;;;;;;;2.05;0.50;;;13.60;99.90;;;;;;5013500;28;20052;-74
2022/05/30 08:30:39;;;;;;;0.93;0.60;;;14.10;99.90;;;;;;5038300;28;20036;-76
2022/05/30 08:33:11;;;;;;;1.00;0.50;;;13.70;99.90;;;;;;5027638;28;20034;-75
2022/05/30 08:35:37;;;;;;;1.02;0.77;;;13.90;99.90;;;;;;5036395;28;20570;-75
2022/05/30 08:38:04;;;;;;;2.55;0.73;;;13.70;99.90;;;;;;5022102;28;20037;-76
2022/05/30 08:43:24;;;;;;;1.45;0.75;;;13.40;99.90;;;;;;5044012;28;20405;-76
2022/05/30 08:46:15;;;;;;;2.08;0.75;;;13.20;99.90;;;;;;5033472;28;20045;-75
2022/05/30 08:48:46;;;;;;;2.88;0.70;;;13.10;99.90;;;;;;5029040;28;20041;-76
2022/05/30 08:51:49;;;;;;;1.90;0.80;;;12.70;99.90;;;;;;5048385;28;20039;-74
2022/05/30 08:54:28;;;;;;;1.92;0.82;;;12.50;99.90;;;;;;5039349;28;20044;-76
2022/05/30 08:56:56;;;;;;;2.45;0.65;;;12.80;99.90;;;;;;5029227;28;20091;-77
2022/05/30 08:59:44;;;;;;;3.20;0.90;;;13.20;99.90;;;;;;5042440;28;20045;-77
2022/05/30 09:02:21;;;;;;;2.40;0.80;;;13.50;99.90;;;;;;5045261;28;20063;-75
2022/05/30 09:05:09;;;;;;;2.10;0.60;;;13.20;99.90;;;;;;5042272;28;20037;-74
2022/05/30 09:07:46;;;;;;;1.17;0.65;;;13.30;99.90;;;;;;5030975;28;20033;-76
2022/05/30 09:10:20;;;;;;;0.80;0.60;;;13.10;99.90;;;;;;5032075;28;20037;-75
2022/05/30 09:12:59;;;;;;;2.40;0.50;;;13.30;99.90;;;;;;5017722;28;20049;-76
2022/05/30 09:15:34;;;;;;;1.05;0.55;;;13.20;99.90;;;;;;5043913;28;20103;-75
2022/05/30 09:18:00;;;;;;;0.93;0.50;;;13.00;99.90;;;;;;5034276;28;20384;-75
2022/05/30 09:20:27;;;;;;;0.95;0.40;;;13.10;99.90;;;;;;5049231;28;20041;-74
2022/05/30 09:22:54;;;;;;;0.50;0.50;;;13.30;99.90;;;;;;5046631;28;20044;-75
2022/05/30 09:28:12;;;;;;;0.60;0.40;;;13.80;99.90;;;;;;5047682;28;20111;-74
2022/05/30 09:30:52;;;;;;;1.23;0.50;;;13.80;99.90;;;;;;5030965;28;20053;-73
2022/05/30 09:33:32;;;;;;;1.00;0.68;;;14.20;99.90;;;;;;5046485;28;20047;-74
2022/05/30 09:36:19;;;;;;;1.70;0.60;;;14.00;99.90;;;;;;5029417;28;20052;-75
2022/05/30 09:38:55;;;;;;;0.50;0.50;;;13.90;99.90;;;;;;5039459;28;20061;-74
2022/05/30 09:41:23;;;;;;;1.13;0.68;;;13.80;99.90;;;;;;5047284;28;20595;-73
2022/05/30 09:44:17;;;;;;;2.30;0.70;;;13.80;99.90;;;;;;5047759;28;20041;-73
2022/05/30 09:46:50;;;;;;;0.55;0.50;;;13.50;99.90;;;;;;5014805;28;20444;-74
2022/05/30 09:49:21;;;;;;;1.58;0.60;;;13.20;99.90;;;;;;5046234;28;20045;-74
2022/05/30 09:51:50;;;;;;;0.88;0.60;;;13.40;99.90;;;;;;5036008;28;20660;-74
2022/05/30 09:54:25;;;;;;;1.17;0.63;;;13.40;99.90;;;;;;5049584;28;20033;-72
2022/05/30 09:57:16;;;;;;;2.75;0.98;;;13.50;99.90;;;;;;5045659;28;20127;-74
2022/05/30 09:59:44;;;;;;;1.75;0.68;;;13.80;99.90;;;;;;5032440;28;20049;-74
2022/05/30 10:02:27;;;;;;;1.80;0.80;;;13.90;99.90;;;;;;5042669;28;20045;-74
2022/05/30 10:05:20;;;;;;;1.02;0.90;;;14.00;99.90;;;;;;5044979;28;20052;-74
2022/05/30 10:07:52;;;;;;;2.58;0.90;;;13.80;99.90;;;;;;5052018;28;20040;-74
2022/05/30 10:10:24;;;;;;;1.55;0.80;;;13.60;99.90;;;;;;5051640;28;20778;-73
2022/05/30 10:12:57;;;;;;;1.08;0.80;;;13.90;99.90;;;;;;5051064;28;20723;-75
2022/05/30 10:15:34;;;;;;;1.85;0.98;;;14.40;99.90;;;;;;5046884;28;20049;-74
2022/05/30 10:18:16;;;;;;;1.25;0.40;;;13.90;99.90;;;;;;5034144;28;20041;-77
2022/05/30 10:20:54;;;;;;;0.50;0.30;;;13.90;99.90;;;;;;5034040;28;20056;-74
2022/05/30 10:29:52;;;;;;;0.40;0.28;;;14.20;99.90;;;;;;5049118;28;20053;-75
2022/05/30 10:32:41;;;;;;;0.93;0.40;;;15.20;99.90;;;;;;5048092;28;20047;-75
2022/05/30 10:35:23;;;;;;;1.10;0.40;;;15.60;99.90;;;;;;5038821;28;20029;-74
2022/05/30 10:38:04;;;;;;;1.88;0.40;;;16.10;99.90;;;;;;5050436;28;20051;-73
2022/05/30 10:41:11;;;;;;;1.27;0.40;;;16.20;99.90;;;;;;5049717;28;20037;-75
2022/05/30 10:43:49;;;;;;;1.48;0.50;;;16.30;99.90;;;;;;5033339;28;20044;-75
2022/05/30 10:46:55;;;;;;;1.27;0.50;;;16.80;99.90;;;;;;5022619;28;20041;-75
2022/05/30 10:49:31;;;;;;;0.63;0.60;;;16.40;99.90;;;;;;5043895;28;20033;-73
2022/05/30 10:52:15;;;;;;;0.52;0.45;;;15.70;99.90;;;;;;5049461;28;20431;-75
2022/05/30 10:55:00;;;;;;;0.82;0.50;;;15.80;99.90;;;;;;5029119;28;20515;-73
2022/05/30 10:57:42;;;;;;;1.58;0.43;;;15.40;99.90;;;;;;5037725;28;20488;-74
2022/05/30 11:00:18;;;;;;;1.83;0.63;;;15.10;99.90;;;;;;5048721;28;20078;-74
2022/05/30 11:03:13;;;;;;;1.85;0.60;;;14.60;99.90;;;;;;5043035;28;20041;-75
2022/05/30 11:05:51;;;;;;;0.40;0.35;;;14.20;99.90;;;;;;5030091;28;20036;-73
2022/05/30 11:08:49;;;;;;;0.52;0.50;;;14.00;99.90;;;;;;5045734;28;20037;-74
2022/05/30 11:11:53;;;;;;;0.63;0.52;;;14.10;99.90;;;;;;5033620;28;20053;-74
2022/05/30 11:14:36;;;;;;;1.58;0.70;;;13.90;99.90;;;;;;5048547;28;20045;-76
2022/05/30 11:17:12;;;;;;;0.60;0.60;;;14.10;99.90;;;;;;5031731;28;20045;-73
2022/05/30 11:19:40;;;;;;;1.70;0.65;;;14.10;99.90;;;;;;5050343;28;20488;-73
2022/05/30 11:22:31;;;;;;;1.67;0.90;;;14.10;99.90;;;;;;5049331;28;20044;-73
2022/05/30 11:24:57;;;;;;;1.63;0.70;;;14.10;99.90;;;;;;5050644;28;20489;-75
2022/05/30 11:27:39;;;;;;;0.88;0.50;;;14.20;99.90;;;;;;5030913;28;20056;-74
2022/05/30 11:30:20;;;;;;;0.93;0.57;;;14.20;99.90;;;;;;5042400;28;20051;-72
2022/05/30 11:33:04;;;;;;;0.40;0.40;;;14.00;99.90;;;;;;5050709;28;20390;-75
2022/05/30 11:35:37;;;;;;;1.02;0.50;;;14.20;99.90;;;;;;5033221;28;20040;-74
2022/05/30 11:38:20;;;;;;;1.83;0.70;;;14.10;99.90;;;;;;5038461;28;20040;-72
2022/05/30 11:41:08;;;;;;;2.45;0.68;;;14.10;99.90;;;;;;5050231;28;20045;-73
2022/05/30 11:43:44;;;;;;;2.42;0.60;;;13.80;99.90;;;;;;5033598;28;20053;-74
2022/05/30 11:46:28;;;;;;;3.55;2.20;;;13.90;99.90;;;;;;5032502;28;20048;-73
2022/05/30 11:49:21;;;;;;;1.00;0.60;;;13.70;99.90;;;;;;5048996;28;20033;-73
2022/05/30 11:52:23;;;;;;;0.38;0.38;;;13.70;99.90;;;;;;5049534;28;20033;-74
2022/05/30 11:54:51;;;;;;;0.95;0.60;;;13.90;99.90;;;;;;4991350;28;20097;-72
2022/05/30 11:57:47;;;;;;;0.75;0.50;;;13.90;99.90;;;;;;5006388;28;21834;-72
2022/05/30 12:00:34;;;;;;;1.48;0.60;;;13.90;99.90;;;;;;5042020;28;20556;-73
2022/05/30 12:03:06;;;;;;;0.50;0.40;;;13.60;99.90;;;;;;5048315;28;20369;-72
2022/05/30 12:05:37;;;;;;;1.17;0.57;;;13.60;99.90;;;;;;5048646;28;20037;-74
2022/05/30 12:08:13;;;;;;;1.45;0.50;;;13.70;99.90;;;;;;5030718;28;20036;-73
2022/05/30 12:10:47;;;;;;;0.98;0.55;;;13.70;99.90;;;;;;5017071;28;20064;-73
2022/05/30 12:13:19;;;;;;;;;;;13.60;99.90;;;;;;5028523;28;20108;-73
2022/05/30 12:16:09;;;;;;;1.75;0.60;;;13.50;99.90;;;;;;5039584;28;19921;-72
2022/05/30 12:24:19;;;;;;;0.70;0.43;;;13.40;99.90;;;;;;5048501;28;20043;-73
2022/05/30 12:26:57;;;;;;;0.93;0.63;;;13.40;99.90;;;;;;5047349;28;20404;-73
2022/05/30 12:29:42;;;;;;;1.15;0.85;;;13.40;99.90;;;;;;5048552;28;20041;-73
2022/05/30 12:32:21;;;;;;;2.03;0.90;;;13.50;99.90;;;;;;5062994;28;20123;-72
2022/05/30 12:35:00;;;;;;;1.95;0.98;;;13.50;99.90;;;;;;5048713;28;20063;-73
2022/05/30 12:37:46;;;;;;;1.20;0.75;;;13.60;99.90;;;;;;5031970;28;20040;-73
2022/05/30 12:40:26;;;;;;;1.02;0.40;;;13.60;99.90;;;;;;5046430;28;20048;-73
2022/05/30 12:43:07;;;;;;;1.33;0.55;;;13.60;99.90;;;;;;5028618;28;20053;-72
2022/05/30 12:45:46;;;;;;;2.25;0.80;;;13.50;99.90;;;;;;5031162;28;20077;-73
2022/05/30 12:48:37;;;;;;;0.60;0.60;;;13.40;99.90;;;;;;5048204;28;20370;-73
2022/05/30 12:51:21;;;;;;;1.17;0.80;;;13.20;99.90;;;;;;5021116;28;20486;-73
2022/05/30 12:53:59;;;;;;;2.77;0.73;;;13.30;99.90;;;;;;5038528;28;20037;-72
2022/05/30 12:56:37;;;;;;;1.38;0.77;;;13.10;99.90;;;;;;5047685;28;20386;-73
2022/05/30 12:59:02;;;;;;;0.88;0.73;;;13.10;99.90;;;;;;5048278;28;20744;-72
2022/05/30 13:01:44;;;;;;;1.08;0.80;;;13.10;99.90;;;;;;5019032;28;20084;-73
2022/05/30 13:04:16;;;;;;;0.82;0.77;;;13.00;99.90;;;;;;5046180;28;20049;-72
2022/05/30 13:06:56;;;;;;;1.42;0.70;;;12.90;99.90;;;;;;5048039;28;20098;-73
2022/05/30 13:09:30;;;;;;;1.35;0.77;;;13.10;99.90;;;;;;5031291;28;20474;-73
2022/05/30 13:12:10;;;;;;;0.60;0.60;;;13.00;99.90;;;;;;5030740;28;20044;-72
2022/05/30 13:14:54;;;;;;;1.33;0.80;;;12.90;99.90;;;;;;5046976;28;20436;-71
2022/05/30 13:17:23;;;;;;;0.98;0.60;;;13.00;99.90;;;;;;5046773;28;20079;-72
2022/05/30 13:19:52;;;;;;;1.35;0.68;;;12.80;99.90;;;;;;5030708;28;20072;-72
2022/05/30 13:22:31;;;;;;;1.13;0.70;;;13.10;99.90;;;;;;5047054;28;20045;-72
2022/05/30 13:24:58;;;;;;;1.60;0.60;;;13.30;99.90;;;;;;5049857;28;20685;-73
2022/05/30 13:27:26;;;;;;;1.00;0.50;;;13.30;99.90;;;;;;5051807;28;20049;-73
2022/05/30 13:29:52;;;;;;;2.90;0.80;;;13.60;99.90;;;;;;5050787;28;20136;-73
2022/05/30 13:32:21;;;;;;;1.40;0.60;;;13.50;99.90;;;;;;5017559;28;20463;-73
2022/05/30 13:34:51;;;;;;;3.75;0.80;;;13.40;99.90;;;;;;5032364;28;20037;-73
2022/05/30 13:37:27;;;;;;;2.65;0.80;;;13.40;99.90;;;;;;5051416;28;20040;-72
2022/05/30 13:39:55;;;;;;;1.55;0.93;;;13.40;99.90;;;;;;5033480;28;20075;-73
2022/05/30 13:42:25;;;;;;;1.73;0.68;;;13.30;99.90;;;;;;5046080;28;20138;-74